Time;durP1;ratioP1;P1;durP2;ratioP2;P2;SDS_P1;SDS_P2;PMS_P1;PMS_P2;Temp;Humidity;BMP_temperature;BMP_pressure;BME280_temperature;BME280_humidity;BME280_pressure;Samples;Min_cycle;Max_cycle;Signal;HPM_P1;HPM_P2
2024/01/03 00:02:21;;;;;;;9.00;1.90;;;;;;;;;;5103273;27;43523;-74
2024/01/03 00:04:49;;;;;;;10.45;2.40;;;;;;;;;;5096616;27;40315;-74
2024/01/03 00:07:17;;;;;;;6.30;1.88;;;;;;;;;;5101734;27;41587;-74
2024/01/03 00:09:45;;;;;;;8.90;2.38;;;;;;;;;;5103004;27;42210;-74
2024/01/03 00:12:18;;;;;;;9.82;2.13;;;;;;;;;;5094873;27;41426;-74
2024/01/03 00:14:46;;;;;;;9.35;2.28;;;;;;;;;;5110756;27;41930;-74
2024/01/03 00:17:15;;;;;;;11.30;2.83;;;;;;;;;;5117255;27;40634;-74
2024/01/03 00:19:44;;;;;;;9.68;2.40;;;;;;;;;;5100006;27;41917;-74
2024/01/03 00:22:13;;;;;;;9.00;2.15;;;;;;;;;;5123974;27;41933;-74
2024/01/03 00:24:45;;;;;;;9.07;2.53;;;;;;;;;;5105195;27;41902;-74
2024/01/03 00:27:13;;;;;;;8.35;1.98;;;;;;;;;;5105575;27;41805;-74
2024/01/03 00:29:54;;;;;;;11.32;2.47;;;;;;;;;;5091605;28;42115;-74
2024/01/03 00:32:24;;;;;;;11.13;2.60;;;;;;;;;;5108977;27;40329;-74
2024/01/03 00:34:52;;;;;;;11.75;2.35;;;;;;;;;;5107923;27;42085;-74
2024/01/03 00:37:24;;;;;;;13.85;3.40;;;;;;;;;;5109809;27;41596;-74
2024/01/03 00:39:53;;;;;;;17.30;4.97;;;;;;;;;;5099347;27;41055;-74
2024/01/03 00:42:20;;;;;;;12.93;4.60;;;;;;;;;;5105142;27;42671;-74
2024/01/03 00:44:48;;;;;;;20.08;7.97;;;;;;;;;;5108293;27;40075;-74
2024/01/03 00:47:18;;;;;;;13.98;5.55;;;;;;;;;;5110282;27;43117;-74
2024/01/03 00:49:48;;;;;;;16.55;6.35;;;;;;;;;;5108500;27;42805;-74
2024/01/03 00:52:16;;;;;;;7.95;3.33;;;;;;;;;;5110231;27;40011;-74
2024/01/03 00:54:44;;;;;;;9.75;2.97;;;;;;;;;;5108912;27;42708;-74
2024/01/03 00:57:12;;;;;;;11.25;3.92;;;;;;;;;;5087034;28;40555;-74
2024/01/03 00:59:40;;;;;;;13.13;4.68;;;;;;;;;;5089042;28;41546;-74
2024/01/03 01:02:08;;;;;;;11.60;4.10;;;;;;;;;;5087693;28;42854;-74
2024/01/03 01:04:39;;;;;;;10.63;3.13;;;;;;;;;;5070689;28;39369;-74
2024/01/03 01:07:08;;;;;;;10.85;2.95;;;;;;;;;;5085891;28;42290;-74
2024/01/03 01:09:36;;;;;;;12.15;3.40;;;;;;;;;;5088764;28;42285;-74
2024/01/03 01:12:04;;;;;;;9.02;2.60;;;;;;;;;;5088376;28;41415;-74
2024/01/03 01:14:32;;;;;;;7.97;2.58;;;;;;;;;;5089496;28;41269;-75
2024/01/03 01:17:00;;;;;;;11.30;2.85;;;;;;;;;;5083701;28;40771;-74
2024/01/03 01:19:28;;;;;;;9.00;2.60;;;;;;;;;;5089204;28;41394;-75
2024/01/03 01:21:56;;;;;;;8.57;2.20;;;;;;;;;;5082519;28;43158;-75
2024/01/03 01:24:25;;;;;;;12.57;3.38;;;;;;;;;;5086840;28;40894;-74
2024/01/03 01:26:53;;;;;;;7.88;2.67;;;;;;;;;;5069561;28;39762;-74
2024/01/03 01:29:21;;;;;;;8.68;2.60;;;;;;;;;;5086969;28;42191;-74
2024/01/03 01:31:50;;;;;;;11.48;2.85;;;;;;;;;;5084630;28;39673;-75
2024/01/03 01:34:18;;;;;;;11.43;3.03;;;;;;;;;;5098339;28;40122;-75
2024/01/03 01:36:46;;;;;;;8.93;1.98;;;;;;;;;;5088402;28;42842;-74
2024/01/03 01:39:25;;;;;;;8.90;2.85;;;;;;;;;;5086467;28;40237;-75
2024/01/03 01:41:54;;;;;;;11.75;2.83;;;;;;;;;;5101785;28;39990;-75
2024/01/03 01:44:22;;;;;;;8.75;2.50;;;;;;;;;;5088855;28;40210;-74
2024/01/03 01:46:50;;;;;;;13.27;3.03;;;;;;;;;;5091698;28;41220;-74
2024/01/03 01:49:18;;;;;;;9.32;2.67;;;;;;;;;;5088382;28;40528;-74
2024/01/03 01:51:48;;;;;;;13.25;3.17;;;;;;;;;;5088699;28;41000;-75
2024/01/03 01:54:17;;;;;;;13.68;3.78;;;;;;;;;;5059364;28;40791;-74
2024/01/03 01:56:46;;;;;;;10.93;2.95;;;;;;;;;;5104058;27;43104;-75
2024/01/03 01:59:16;;;;;;;14.38;3.38;;;;;;;;;;5089599;28;39172;-75
2024/01/03 02:01:44;;;;;;;13.68;4.05;;;;;;;;;;5088215;27;40351;-74
2024/01/03 02:04:12;;;;;;;14.93;3.85;;;;;;;;;;5089787;28;32203;-75
2024/01/03 02:06:40;;;;;;;11.65;3.00;;;;;;;;;;5108504;27;41810;-75
2024/01/03 02:09:07;;;;;;;11.70;2.88;;;;;;;;;;5089080;28;40555;-75
2024/01/03 02:11:36;;;;;;;11.00;2.70;;;;;;;;;;5122398;27;40270;-75
2024/01/03 02:14:04;;;;;;;14.07;3.00;;;;;;;;;;5105817;27;42855;-75
2024/01/03 02:16:33;;;;;;;10.55;2.70;;;;;;;;;;5080448;27;41664;-75
2024/01/03 02:19:04;;;;;;;11.90;2.78;;;;;;;;;;5107935;27;40449;-74
2024/01/03 02:21:33;;;;;;;15.48;3.75;;;;;;;;;;5107763;27;41120;-74
2024/01/03 02:24:01;;;;;;;12.95;3.38;;;;;;;;;;5107477;27;42159;-74
2024/01/03 02:26:29;;;;;;;7.80;2.15;;;;;;;;;;5107656;27;42470;-75
2024/01/03 02:28:57;;;;;;;14.40;3.67;;;;;;;;;;5108777;27;42108;-71
2024/01/03 02:31:25;;;;;;;18.17;3.45;;;;;;;;;;5102473;27;41050;-71
2024/01/03 02:33:53;;;;;;;13.18;3.25;;;;;;;;;;5098064;27;41640;-71
2024/01/03 02:36:21;;;;;;;19.05;4.00;;;;;;;;;;5106964;27;43161;-71
2024/01/03 02:38:51;;;;;;;15.73;3.47;;;;;;;;;;5111565;27;41970;-71
2024/01/03 02:41:19;;;;;;;8.00;2.80;;;;;;;;;;5106717;27;41253;-71
2024/01/03 02:43:47;;;;;;;10.90;3.00;;;;;;;;;;5107381;27;41710;-71
2024/01/03 02:46:18;;;;;;;14.88;3.10;;;;;;;;;;5107223;27;41379;-71
2024/01/03 02:48:46;;;;;;;12.10;3.70;;;;;;;;;;5091872;28;43151;-71
2024/01/03 02:51:17;;;;;;;12.10;2.90;;;;;;;;;;5096244;28;40129;-71
2024/01/03 02:53:45;;;;;;;14.18;3.55;;;;;;;;;;5103749;27;41646;-71
2024/01/03 02:56:15;;;;;;;9.00;2.78;;;;;;;;;;5091448;27;41550;-71
2024/01/03 02:58:43;;;;;;;10.90;2.97;;;;;;;;;;5088054;28;40307;-71
2024/01/03 03:01:11;;;;;;;16.27;3.95;;;;;;;;;;5080746;28;41872;-71
2024/01/03 03:03:39;;;;;;;13.45;3.15;;;;;;;;;;5086351;28;42008;-71
2024/01/03 03:06:07;;;;;;;9.07;3.03;;;;;;;;;;5086238;28;40316;-71
2024/01/03 03:08:35;;;;;;;12.40;2.58;;;;;;;;;;5088804;28;41955;-71
2024/01/03 03:11:04;;;;;;;9.57;2.42;;;;;;;;;;5085337;28;40425;-71
2024/01/03 03:13:33;;;;;;;15.70;3.50;;;;;;;;;;5087363;28;40789;-71
2024/01/03 03:16:01;;;;;;;10.48;2.88;;;;;;;;;;5082715;28;40732;-71
2024/01/03 03:18:29;;;;;;;13.20;2.95;;;;;;;;;;5086342;28;40558;-71
2024/01/03 03:20:58;;;;;;;12.13;3.10;;;;;;;;;;5086533;28;41567;-71
2024/01/03 03:23:26;;;;;;;15.88;3.60;;;;;;;;;;5086491;28;42025;-71
2024/01/03 03:25:54;;;;;;;12.88;3.08;;;;;;;;;;5087165;28;39734;-71
2024/01/03 03:28:22;;;;;;;11.23;2.88;;;;;;;;;;5066769;28;40813;-71
2024/01/03 03:30:51;;;;;;;13.20;3.63;;;;;;;;;;5085927;28;43188;-71
2024/01/03 03:33:19;;;;;;;15.02;3.72;;;;;;;;;;5085915;28;41764;-71
2024/01/03 03:35:48;;;;;;;7.38;2.25;;;;;;;;;;5085360;28;42249;-71
2024/01/03 03:38:16;;;;;;;14.55;2.78;;;;;;;;;;5086608;28;40332;-72
2024/01/03 03:40:44;;;;;;;6.45;2.08;;;;;;;;;;5099648;28;41788;-71
2024/01/03 03:43:12;;;;;;;16.33;3.35;;;;;;;;;;5078918;28;43098;-71
2024/01/03 03:45:40;;;;;;;8.40;2.80;;;;;;;;;;5086256;28;41353;-71
2024/01/03 03:48:09;;;;;;;12.25;3.53;;;;;;;;;;5085141;28;41187;-71
2024/01/03 03:50:38;;;;;;;15.05;3.63;;;;;;;;;;5086755;28;42098;-71
2024/01/03 03:53:10;;;;;;;15.10;3.25;;;;;;;;;;5086094;28;40970;-71
2024/01/03 03:55:40;;;;;;;11.27;3.10;;;;;;;;;;5070393;28;42108;-71
2024/01/03 03:58:08;;;;;;;14.85;3.50;;;;;;;;;;5079712;28;41065;-71
2024/01/03 04:00:36;;;;;;;9.20;2.63;;;;;;;;;;5083958;28;42623;-71
2024/01/03 04:03:07;;;;;;;10.18;2.72;;;;;;;;;;5086916;28;41802;-71
2024/01/03 04:05:37;;;;;;;16.98;3.88;;;;;;;;;;5082872;28;41064;-71
2024/01/03 04:08:05;;;;;;;9.55;2.53;;;;;;;;;;5087322;28;41431;-71
2024/01/03 04:10:33;;;;;;;13.55;3.13;;;;;;;;;;5085540;28;43130;-71
2024/01/03 04:13:01;;;;;;;14.68;3.55;;;;;;;;;;5086576;28;40781;-71
2024/01/03 04:15:29;;;;;;;13.65;3.25;;;;;;;;;;5087908;28;42937;-71
2024/01/03 04:17:57;;;;;;;10.50;2.63;;;;;;;;;;5098770;28;41325;-72
2024/01/03 04:20:26;;;;;;;10.20;2.42;;;;;;;;;;5084848;28;41323;-71
2024/01/03 04:22:55;;;;;;;14.70;3.28;;;;;;;;;;5086274;28;41831;-71
2024/01/03 04:25:23;;;;;;;15.32;3.10;;;;;;;;;;5085588;28;40399;-71
2024/01/03 04:27:51;;;;;;;11.23;3.10;;;;;;;;;;5088369;28;41236;-71
2024/01/03 04:30:19;;;;;;;17.25;3.45;;;;;;;;;;5088924;28;42361;-71
2024/01/03 04:32:47;;;;;;;12.82;2.90;;;;;;;;;;5089161;28;41384;-71
2024/01/03 04:35:15;;;;;;;13.13;3.13;;;;;;;;;;5078682;28;41529;-71
2024/01/03 04:37:43;;;;;;;15.68;2.75;;;;;;;;;;5089303;28;40272;-71
2024/01/03 04:40:13;;;;;;;16.65;4.55;;;;;;;;;;5088629;28;42566;-71
2024/01/03 04:42:41;;;;;;;13.50;3.22;;;;;;;;;;5088864;28;42832;-71
2024/01/03 04:45:09;;;;;;;18.10;4.15;;;;;;;;;;5088222;28;40039;-71
2024/01/03 04:47:37;;;;;;;13.02;3.65;;;;;;;;;;5083396;28;41559;-70
2024/01/03 04:50:05;;;;;;;13.95;3.58;;;;;;;;;;5076322;28;42018;-72
2024/01/03 04:52:33;;;;;;;10.63;3.50;;;;;;;;;;5089575;28;38834;-71
2024/01/03 04:55:02;;;;;;;11.82;3.30;;;;;;;;;;5088957;28;42120;-71
2024/01/03 04:57:33;;;;;;;15.60;3.33;;;;;;;;;;5108144;27;40521;-72
2024/01/03 05:00:04;;;;;;;15.23;3.85;;;;;;;;;;5105218;27;42306;-71
2024/01/03 05:02:32;;;;;;;11.77;2.72;;;;;;;;;;5101154;27;43688;-71
2024/01/03 05:05:00;;;;;;;13.63;3.25;;;;;;;;;;5105880;27;39894;-71
2024/01/03 05:07:29;;;;;;;7.88;2.70;;;;;;;;;;5090348;28;41319;-71
2024/01/03 05:09:57;;;;;;;10.95;3.00;;;;;;;;;;5108885;27;41992;-71
2024/01/03 05:12:25;;;;;;;9.90;3.10;;;;;;;;;;5109923;27;39959;-71
2024/01/03 05:14:54;;;;;;;17.02;3.53;;;;;;;;;;5091835;28;40070;-71
2024/01/03 05:17:22;;;;;;;17.17;4.20;;;;;;;;;;5108459;27;41662;-71
2024/01/03 05:19:51;;;;;;;18.75;4.43;;;;;;;;;;5110134;27;40358;-71
2024/01/03 05:22:19;;;;;;;15.40;3.53;;;;;;;;;;5109490;27;42158;-71
2024/01/03 05:24:46;;;;;;;12.75;3.65;;;;;;;;;;5099125;27;41333;-71
2024/01/03 05:27:14;;;;;;;21.38;5.32;;;;;;;;;;5109890;27;42129;-71
2024/01/03 05:29:42;;;;;;;11.20;3.42;;;;;;;;;;5107916;28;43146;-71
2024/01/03 05:32:12;;;;;;;16.92;3.72;;;;;;;;;;5107939;27;41143;-71
2024/01/03 05:34:40;;;;;;;11.07;3.42;;;;;;;;;;5104394;27;41651;-71
2024/01/03 05:37:08;;;;;;;15.20;3.83;;;;;;;;;;5099596;27;41945;-71
2024/01/03 05:39:36;;;;;;;9.48;2.95;;;;;;;;;;5109716;27;40672;-71
2024/01/03 05:42:04;;;;;;;14.48;4.22;;;;;;;;;;5107020;27;39634;-71
2024/01/03 05:44:32;;;;;;;7.78;2.83;;;;;;;;;;5106763;27;39955;-71
2024/01/03 05:47:00;;;;;;;15.50;3.63;;;;;;;;;;5102060;27;41415;-72
2024/01/03 05:49:33;;;;;;;18.33;5.40;;;;;;;;;;5108884;27;43265;-71
2024/01/03 05:52:02;;;;;;;16.50;4.55;;;;;;;;;;5104182;27;40456;-71
2024/01/03 05:54:31;;;;;;;11.00;3.47;;;;;;;;;;5109628;27;41912;-71
2024/01/03 05:57:00;;;;;;;13.10;4.03;;;;;;;;;;5088175;27;42547;-70
2024/01/03 05:59:28;;;;;;;10.40;3.35;;;;;;;;;;5087824;28;40221;-71
2024/01/03 06:01:57;;;;;;;11.30;3.13;;;;;;;;;;5088209;28;41433;-71
2024/01/03 06:04:25;;;;;;;16.70;4.43;;;;;;;;;;5086035;28;41556;-71
2024/01/03 06:06:54;;;;;;;7.38;2.28;;;;;;;;;;5064064;28;42592;-71
2024/01/03 06:09:22;;;;;;;12.93;3.58;;;;;;;;;;5086926;28;43753;-71
2024/01/03 06:11:50;;;;;;;10.60;3.35;;;;;;;;;;5087248;28;40257;-71
2024/01/03 06:14:18;;;;;;;10.43;2.80;;;;;;;;;;5074464;28;41303;-71
2024/01/03 06:16:46;;;;;;;8.88;3.00;;;;;;;;;;5082879;28;42033;-71
2024/01/03 06:19:14;;;;;;;12.88;3.45;;;;;;;;;;5087110;28;41279;-72
2024/01/03 06:21:42;;;;;;;9.82;2.75;;;;;;;;;;5087740;28;41527;-71
2024/01/03 06:24:11;;;;;;;13.18;3.47;;;;;;;;;;5087826;28;42219;-71
2024/01/03 06:26:39;;;;;;;15.90;3.72;;;;;;;;;;5086642;28;42538;-71
2024/01/03 06:29:08;;;;;;;10.65;3.60;;;;;;;;;;5087476;28;42258;-71
2024/01/03 06:31:36;;;;;;;8.45;2.35;;;;;;;;;;5087156;28;39899;-71
2024/01/03 06:34:04;;;;;;;10.52;2.67;;;;;;;;;;5084598;28;41670;-71
2024/01/03 06:36:32;;;;;;;11.27;2.70;;;;;;;;;;5091800;28;42027;-71
2024/01/03 06:39:00;;;;;;;8.07;2.78;;;;;;;;;;5089083;28;40282;-71
2024/01/03 06:41:29;;;;;;;10.85;2.80;;;;;;;;;;5077539;28;42073;-71
2024/01/03 06:43:58;;;;;;;8.55;2.35;;;;;;;;;;5099930;28;42290;-71
2024/01/03 06:46:26;;;;;;;10.48;2.53;;;;;;;;;;5101659;28;41202;-72
2024/01/03 06:48:55;;;;;;;7.18;2.50;;;;;;;;;;5084138;27;42263;-71
2024/01/03 06:51:24;;;;;;;6.88;2.35;;;;;;;;;;5087601;28;41094;-71
2024/01/03 06:53:52;;;;;;;8.82;2.65;;;;;;;;;;5078304;28;41642;-71
2024/01/03 06:56:20;;;;;;;6.93;2.13;;;;;;;;;;5093288;27;42091;-71
2024/01/03 06:58:50;;;;;;;7.20;2.60;;;;;;;;;;5104969;27;40187;-71
2024/01/03 07:01:18;;;;;;;6.78;2.28;;;;;;;;;;5101166;27;41144;-71
2024/01/03 07:03:46;;;;;;;7.40;2.08;;;;;;;;;;5106960;27;41464;-71
2024/01/03 07:06:14;;;;;;;7.13;2.25;;;;;;;;;;5105798;27;40289;-71
2024/01/03 07:08:42;;;;;;;5.80;2.10;;;;;;;;;;5100021;27;41646;-71
2024/01/03 07:11:10;;;;;;;8.20;2.42;;;;;;;;;;5103480;27;40832;-71
2024/01/03 07:13:38;;;;;;;6.13;2.00;;;;;;;;;;5108633;27;41086;-71
2024/01/03 07:16:08;;;;;;;8.27;2.28;;;;;;;;;;5105455;27;42196;-72
2024/01/03 07:18:36;;;;;;;7.35;2.50;;;;;;;;;;5101095;27;40730;-72
2024/01/03 07:21:04;;;;;;;6.32;1.77;;;;;;;;;;5110705;27;42467;-72
2024/01/03 07:23:32;;;;;;;11.13;2.53;;;;;;;;;;5072330;28;41858;-72
2024/01/03 07:26:00;;;;;;;5.03;1.88;;;;;;;;;;5100794;27;40971;-72
2024/01/03 07:28:28;;;;;;;9.55;1.98;;;;;;;;;;5108193;27;42682;-72
2024/01/03 07:30:56;;;;;;;7.70;1.90;;;;;;;;;;5081056;27;40876;-72
2024/01/03 07:33:25;;;;;;;5.05;0.95;;;;;;;;;;5090307;27;43812;-72
2024/01/03 07:35:54;;;;;;;6.10;1.23;;;;;;;;;;5103113;27;42492;-72
2024/01/03 07:38:22;;;;;;;5.38;1.27;;;;;;;;;;5106613;27;40890;-71
2024/01/03 07:40:50;;;;;;;3.83;1.20;;;;;;;;;;5088007;28;41699;-71
2024/01/03 07:43:18;;;;;;;5.75;1.30;;;;;;;;;;5104596;27;41458;-71
2024/01/03 07:45:46;;;;;;;5.25;1.05;;;;;;;;;;5102996;28;39767;-71
2024/01/03 07:48:13;;;;;;;7.25;1.15;;;;;;;;;;5101276;27;41215;-71
2024/01/03 07:50:44;;;;;;;3.72;1.05;;;;;;;;;;5094386;27;42590;-72
2024/01/03 07:53:12;;;;;;;2.97;0.95;;;;;;;;;;5091099;27;39984;-70
2024/01/03 07:55:42;;;;;;;3.28;1.17;;;;;;;;;;5095485;27;41873;-69
2024/01/03 07:58:10;;;;;;;4.43;1.02;;;;;;;;;;5080363;28;40990;-70
2024/01/03 08:00:38;;;;;;;4.30;1.00;;;;;;;;;;5088431;28;41888;-70
2024/01/03 08:03:06;;;;;;;5.00;1.17;;;;;;;;;;5078564;28;41587;-70
2024/01/03 08:05:34;;;;;;;4.97;1.40;;;;;;;;;;5084125;28;39828;-70
2024/01/03 08:08:04;;;;;;;1.80;0.80;;;;;;;;;;5087531;28;41214;-70
2024/01/03 08:10:32;;;;;;;4.95;1.10;;;;;;;;;;5078959;28;42632;-69
2024/01/03 08:12:59;;;;;;;2.47;0.85;;;;;;;;;;5072142;28;40244;-70
2024/01/03 08:15:27;;;;;;;3.90;0.80;;;;;;;;;;5085084;28;41437;-69
2024/01/03 08:17:55;;;;;;;2.97;1.13;;;;;;;;;;5084875;28;38709;-69
2024/01/03 08:20:26;;;;;;;4.40;1.02;;;;;;;;;;5082914;28;41209;-70
2024/01/03 08:22:54;;;;;;;2.65;1.10;;;;;;;;;;5089790;28;43093;-70
2024/01/03 08:25:23;;;;;;;4.38;0.73;;;;;;;;;;5087317;28;42306;-70
2024/01/03 08:27:51;;;;;;;3.83;0.82;;;;;;;;;;5070475;28;39989;-70
2024/01/03 08:30:19;;;;;;;4.32;1.00;;;;;;;;;;5082043;28;43078;-70
2024/01/03 08:32:47;;;;;;;2.10;0.70;;;;;;;;;;5091528;28;40122;-71
2024/01/03 08:35:16;;;;;;;5.78;0.73;;;;;;;;;;5094787;28;41327;-70
2024/01/03 08:37:44;;;;;;;4.30;0.63;;;;;;;;;;5076241;28;41087;-71
2024/01/03 08:40:12;;;;;;;4.72;0.93;;;;;;;;;;5095806;28;41064;-71
2024/01/03 08:42:41;;;;;;;3.28;0.70;;;;;;;;;;5090790;28;42083;-71
2024/01/03 08:45:10;;;;;;;3.67;1.10;;;;;;;;;;5102453;28;41457;-71
2024/01/03 08:47:38;;;;;;;6.05;0.90;;;;;;;;;;5106661;28;42622;-71
2024/01/03 08:50:06;;;;;;;4.80;1.33;;;;;;;;;;5091316;28;41459;-71
2024/01/03 08:52:34;;;;;;;3.15;1.13;;;;;;;;;;5089897;28;41342;-71
2024/01/03 08:55:04;;;;;;;7.22;0.80;;;;;;;;;;5086571;28;41512;-71
2024/01/03 08:57:32;;;;;;;4.28;1.10;;;;;;;;;;5089158;28;41300;-71
2024/01/03 09:00:03;;;;;;;6.50;1.25;;;;;;;;;;5088648;28;42643;-71
2024/01/03 09:02:31;;;;;;;4.35;1.05;;;;;;;;;;5086041;28;42109;-71
2024/01/03 09:04:59;;;;;;;4.78;1.27;;;;;;;;;;5089165;28;39965;-71
2024/01/03 09:07:27;;;;;;;3.80;1.10;;;;;;;;;;5089444;28;41243;-71
2024/01/03 09:09:55;;;;;;;5.47;1.50;;;;;;;;;;5088865;28;41561;-71
2024/01/03 09:12:24;;;;;;;5.78;1.40;;;;;;;;;;5087408;28;40071;-71
2024/01/03 09:14:52;;;;;;;3.97;1.10;;;;;;;;;;5088704;28;42656;-71
2024/01/03 09:17:22;;;;;;;3.80;1.20;;;;;;;;;;5071582;28;41055;-71
2024/01/03 09:19:57;;;;;;;3.38;1.10;;;;;;;;;;5101150;28;40488;-71
2024/01/03 09:22:25;;;;;;;3.83;1.42;;;;;;;;;;5088532;28;42136;-71
2024/01/03 09:24:53;;;;;;;3.80;1.15;;;;;;;;;;5088790;28;41293;-71
2024/01/03 09:27:21;;;;;;;3.38;1.00;;;;;;;;;;5088948;28;41730;-71
2024/01/03 09:29:49;;;;;;;4.70;1.35;;;;;;;;;;5069638;28;41196;-71
2024/01/03 09:32:17;;;;;;;2.08;0.90;;;;;;;;;;5089030;28;39913;-71
2024/01/03 09:34:46;;;;;;;3.53;1.15;;;;;;;;;;5088606;28;42394;-71
2024/01/03 09:37:14;;;;;;;4.03;1.42;;;;;;;;;;5087512;28;42006;-71
2024/01/03 09:39:42;;;;;;;3.03;1.20;;;;;;;;;;5087592;28;42269;-71
2024/01/03 09:42:09;;;;;;;4.30;1.20;;;;;;;;;;5088695;28;42036;-71
2024/01/03 09:44:38;;;;;;;2.53;0.88;;;;;;;;;;5088173;28;40103;-71
2024/01/03 09:47:07;;;;;;;3.55;1.25;;;;;;;;;;5094228;28;41601;-71
2024/01/03 09:49:35;;;;;;;3.72;1.20;;;;;;;;;;5069878;28;41853;-71
2024/01/03 09:52:05;;;;;;;4.38;0.93;;;;;;;;;;5087164;28;39871;-72
2024/01/03 09:54:33;;;;;;;7.00;1.52;;;;;;;;;;5087771;28;42442;-72
2024/01/03 09:57:01;;;;;;;5.00;1.30;;;;;;;;;;5092490;27;42881;-72
2024/01/03 09:59:29;;;;;;;5.68;1.88;;;;;;;;;;5101854;27;39835;-69
2024/01/03 10:01:58;;;;;;;5.63;1.80;;;;;;;;;;5105596;27;42138;-70
2024/01/03 10:04:26;;;;;;;3.17;1.75;;;;;;;;;;5104464;27;42753;-69
2024/01/03 10:06:54;;;;;;;6.30;1.95;;;;;;;;;;5107672;27;42346;-70
2024/01/03 10:09:24;;;;;;;5.68;1.70;;;;;;;;;;5108462;27;43712;-70
2024/01/03 10:11:53;;;;;;;3.47;1.23;;;;;;;;;;5102455;28;40008;-70
2024/01/03 10:14:22;;;;;;;5.35;1.52;;;;;;;;;;5100652;27;42707;-70
2024/01/03 10:16:50;;;;;;;7.05;2.05;;;;;;;;;;5112475;27;43166;-70
2024/01/03 10:19:18;;;;;;;5.97;1.92;;;;;;;;;;5113331;27;41426;-70
2024/01/03 10:21:47;;;;;;;2.83;1.25;;;;;;;;;;5110771;27;41674;-70
2024/01/03 10:24:15;;;;;;;3.50;1.25;;;;;;;;;;5118036;27;43314;-70
2024/01/03 10:26:45;;;;;;;5.25;1.92;;;;;;;;;;5112732;27;39717;-71
2024/01/03 10:29:14;;;;;;;4.97;1.95;;;;;;;;;;5107061;27;41826;-70
2024/01/03 10:31:42;;;;;;;7.13;1.90;;;;;;;;;;5112054;27;41357;-70
2024/01/03 10:34:12;;;;;;;6.28;1.75;;;;;;;;;;5100704;27;41563;-70
2024/01/03 10:36:40;;;;;;;4.60;1.50;;;;;;;;;;5087639;27;42227;-71
2024/01/03 10:39:08;;;;;;;5.85;1.40;;;;;;;;;;5101687;27;40795;-71
2024/01/03 10:41:37;;;;;;;6.15;1.60;;;;;;;;;;5107534;27;41419;-71
2024/01/03 10:44:06;;;;;;;3.67;1.38;;;;;;;;;;5114239;27;42002;-70
2024/01/03 10:46:34;;;;;;;7.50;1.80;;;;;;;;;;5106837;27;39963;-72
2024/01/03 10:49:02;;;;;;;8.00;1.90;;;;;;;;;;5107166;27;42106;-71
2024/01/03 10:51:33;;;;;;;10.77;2.10;;;;;;;;;;5104358;27;41154;-70
2024/01/03 10:54:01;;;;;;;7.05;2.17;;;;;;;;;;5101489;27;41660;-71
2024/01/03 10:56:30;;;;;;;5.00;1.60;;;;;;;;;;5099686;27;42860;-69
2024/01/03 10:58:58;;;;;;;6.63;1.70;;;;;;;;;;5105161;27;41871;-69
2024/01/03 11:01:29;;;;;;;9.23;2.17;;;;;;;;;;5107518;27;20326;-69
2024/01/03 11:04:01;;;;;;;5.47;1.80;;;;;;;;;;5116569;27;41600;-70
2024/01/03 11:06:31;;;;;;;5.60;2.22;;;;;;;;;;5103928;27;41140;-70
2024/01/03 11:09:01;;;;;;;4.95;1.90;;;;;;;;;;5107304;27;41677;-70
2024/01/03 11:11:30;;;;;;;8.30;1.88;;;;;;;;;;5106286;27;40015;-69
2024/01/03 11:13:58;;;;;;;12.68;2.58;;;;;;;;;;5108504;27;41510;-71
2024/01/03 11:16:37;;;;;;;9.23;2.33;;;;;;;;;;5106217;27;41989;-70
2024/01/03 11:19:07;;;;;;;11.55;2.55;;;;;;;;;;5105546;27;41903;-71
2024/01/03 11:21:37;;;;;;;10.63;2.50;;;;;;;;;;5106347;27;42755;-71
2024/01/03 11:24:30;;;;;;;11.98;2.90;;;;;;;;;;5106030;27;41840;-74
2024/01/03 11:27:04;;;;;;;6.13;1.58;;;;;;;;;;5091958;27;40391;-71
2024/01/03 11:29:42;;;;;;;8.77;1.95;;;;;;;;;;5101764;27;41693;-72
2024/01/03 11:32:13;;;;;;;7.00;1.75;;;;;;;;;;5104104;28;42040;-72
2024/01/03 11:34:41;;;;;;;12.75;3.10;;;;;;;;;;5104925;27;42177;-73
2024/01/03 11:37:25;;;;;;;12.00;2.92;;;;;;;;;;5106934;27;42683;-72
2024/01/03 11:39:53;;;;;;;6.22;2.10;;;;;;;;;;5107681;27;40361;-71
2024/01/03 11:42:21;;;;;;;10.88;3.10;;;;;;;;;;5102995;27;41933;-72
2024/01/03 11:44:59;;;;;;;9.15;2.53;;;;;;;;;;5107995;27;41312;-71
2024/01/03 11:47:29;;;;;;;16.85;3.25;;;;;;;;;;5103626;27;40091;-71
2024/01/03 11:49:57;;;;;;;4.60;1.55;;;;;;;;;;5104481;27;39890;-72
2024/01/03 11:52:25;;;;;;;14.32;3.25;;;;;;;;;;5106998;27;43077;-72
2024/01/03 11:54:53;;;;;;;13.55;3.10;;;;;;;;;;5106859;27;41460;-72
2024/01/03 11:57:21;;;;;;;5.90;2.10;;;;;;;;;;5086166;28;41371;-72
2024/01/03 11:59:49;;;;;;;9.70;2.90;;;;;;;;;;5065076;28;40031;-72
2024/01/03 12:02:19;;;;;;;13.77;3.15;;;;;;;;;;5084553;28;41648;-72
2024/01/03 12:04:48;;;;;;;2.40;1.33;;;;;;;;;;5082418;28;42314;-71
2024/01/03 12:07:16;;;;;;;5.93;1.70;;;;;;;;;;5084900;28;40039;-71
2024/01/03 12:09:44;;;;;;;12.93;3.08;;;;;;;;;;5086921;28;41245;-72
2024/01/03 12:12:12;;;;;;;6.05;1.75;;;;;;;;;;5084982;28;41692;-72
2024/01/03 12:14:40;;;;;;;17.58;3.22;;;;;;;;;;5087118;28;40243;-75
2024/01/03 12:17:08;;;;;;;11.70;2.88;;;;;;;;;;5086109;28;41604;-75
2024/01/03 12:19:36;;;;;;;7.18;2.13;;;;;;;;;;5070381;28;40275;-73
2024/01/03 12:22:07;;;;;;;5.82;2.13;;;;;;;;;;5087341;28;41957;-74
2024/01/03 12:24:38;;;;;;;17.48;4.35;;;;;;;;;;5080377;28;42772;-73
2024/01/03 12:27:06;;;;;;;6.53;2.08;;;;;;;;;;5084890;28;41391;-74
2024/01/03 12:29:35;;;;;;;18.83;3.22;;;;;;;;;;5089081;28;42671;-72
2024/01/03 12:32:09;;;;;;;13.57;2.67;;;;;;;;;;5086027;28;42267;-72
2024/01/03 12:34:37;;;;;;;18.55;4.13;;;;;;;;;;5099025;28;41343;-70
2024/01/03 12:37:07;;;;;;;11.98;3.60;;;;;;;;;;5086362;28;42675;-70
2024/01/03 12:39:39;;;;;;;14.38;2.20;;;;;;;;;;5080317;28;32703;-70
2024/01/03 12:42:08;;;;;;;14.35;3.22;;;;;;;;;;5076525;28;42183;-70
2024/01/03 12:44:37;;;;;;;8.02;2.72;;;;;;;;;;5094482;27;42700;-72
2024/01/03 12:47:05;;;;;;;12.25;3.03;;;;;;;;;;5073848;28;41079;-72
2024/01/03 12:49:34;;;;;;;15.23;3.13;;;;;;;;;;5090163;28;42181;-72
2024/01/03 12:52:04;;;;;;;11.43;3.08;;;;;;;;;;5087099;28;42467;-72
2024/01/03 12:54:34;;;;;;;12.85;2.58;;;;;;;;;;5089305;28;40974;-72
2024/01/03 12:57:02;;;;;;;7.03;2.40;;;;;;;;;;5088077;28;41614;-72
2024/01/03 12:59:30;;;;;;;9.23;2.88;;;;;;;;;;5089884;28;42915;-73
2024/01/03 13:01:58;;;;;;;12.43;3.08;;;;;;;;;;5087389;28;41236;-72
2024/01/03 13:04:28;;;;;;;9.10;2.55;;;;;;;;;;5086137;28;41725;-72
2024/01/03 13:06:56;;;;;;;8.95;2.45;;;;;;;;;;5096217;28;40165;-71
2024/01/03 13:09:24;;;;;;;17.85;3.53;;;;;;;;;;5089322;28;41620;-72
2024/01/03 13:11:53;;;;;;;10.23;2.38;;;;;;;;;;5090431;28;42876;-70
2024/01/03 13:14:23;;;;;;;10.13;2.72;;;;;;;;;;5088051;28;41189;-70
2024/01/03 13:16:51;;;;;;;10.15;2.60;;;;;;;;;;5087555;28;42097;-70
2024/01/03 13:19:19;;;;;;;13.27;2.47;;;;;;;;;;5090721;28;41397;-70
2024/01/03 13:21:48;;;;;;;7.07;1.80;;;;;;;;;;5087399;28;40440;-71
2024/01/03 13:24:15;;;;;;;17.98;2.25;;;;;;;;;;5086344;28;42164;-70
2024/01/03 13:26:43;;;;;;;5.07;1.58;;;;;;;;;;5087688;28;40297;-70
2024/01/03 13:29:13;;;;;;;10.55;2.20;;;;;;;;;;5087112;28;40874;-71
2024/01/03 13:31:41;;;;;;;6.13;2.10;;;;;;;;;;5087446;28;42842;-70
2024/01/03 13:34:09;;;;;;;6.88;1.90;;;;;;;;;;5087806;28;41103;-71
2024/01/03 13:36:37;;;;;;;9.05;2.30;;;;;;;;;;5087660;28;41691;-74
2024/01/03 13:39:05;;;;;;;8.90;1.80;;;;;;;;;;5086016;28;42672;-74
2024/01/03 13:41:34;;;;;;;13.02;2.38;;;;;;;;;;5085859;28;40892;-76
2024/01/03 13:44:02;;;;;;;7.72;2.08;;;;;;;;;;5086930;28;41520;-78
2024/01/03 13:46:32;;;;;;;8.40;2.03;;;;;;;;;;5093826;28;41381;-75
2024/01/03 13:49:00;;;;;;;8.85;1.80;;;;;;;;;;5099264;28;41965;-75
2024/01/03 13:51:28;;;;;;;9.98;1.98;;;;;;;;;;5090895;28;41780;-74
2024/01/03 13:53:58;;;;;;;5.45;1.65;;;;;;;;;;5087545;28;41043;-74
2024/01/03 13:56:26;;;;;;;7.15;1.83;;;;;;;;;;5099131;27;41158;-75
2024/01/03 13:58:54;;;;;;;5.25;1.48;;;;;;;;;;5107452;27;42075;-75
2024/01/03 14:01:22;;;;;;;7.00;2.05;;;;;;;;;;5106471;27;40141;-74
2024/01/03 14:03:52;;;;;;;8.60;1.63;;;;;;;;;;5120628;27;41503;-74
2024/01/03 14:06:21;;;;;;;7.97;1.75;;;;;;;;;;5100398;27;42486;-74
2024/01/03 14:08:55;;;;;;;6.20;1.95;;;;;;;;;;5102183;27;42268;-74
2024/01/03 14:11:23;;;;;;;6.72;1.77;;;;;;;;;;5106792;27;42232;-75
2024/01/03 14:13:51;;;;;;;6.65;1.70;;;;;;;;;;5108199;27;41210;-74
2024/01/03 14:16:19;;;;;;;4.85;1.52;;;;;;;;;;5106720;27;41741;-75
2024/01/03 14:18:47;;;;;;;6.45;1.50;;;;;;;;;;5105381;27;41963;-75
2024/01/03 14:21:16;;;;;;;4.72;1.50;;;;;;;;;;5106972;27;40666;-75
2024/01/03 14:23:44;;;;;;;4.80;1.55;;;;;;;;;;5108547;27;40823;-75
2024/01/03 14:26:12;;;;;;;5.93;1.85;;;;;;;;;;5104070;27;41457;-75
2024/01/03 14:28:40;;;;;;;4.38;1.52;;;;;;;;;;5107965;27;39959;-74
2024/01/03 14:31:09;;;;;;;4.97;2.08;;;;;;;;;;5104828;27;41975;-74
2024/01/03 14:33:37;;;;;;;5.38;1.30;;;;;;;;;;5108033;27;40128;-75
2024/01/03 14:36:05;;;;;;;7.80;1.50;;;;;;;;;;5106577;27;42260;-74
2024/01/03 14:38:35;;;;;;;7.07;1.23;;;;;;;;;;5094935;27;41635;-75
2024/01/03 14:41:10;;;;;;;6.40;1.48;;;;;;;;;;5105822;27;40099;-74
2024/01/03 14:43:43;;;;;;;4.43;1.30;;;;;;;;;;5106704;27;41553;-74
2024/01/03 14:46:13;;;;;;;4.53;1.20;;;;;;;;;;5102123;27;42054;-74
2024/01/03 14:48:41;;;;;;;5.72;1.77;;;;;;;;;;5106210;27;40653;-74